Flight Track Log - Related Links

Times and Time Zones

All times are in EDT time to prevent confusion due to time zone crossing. See the TAM3491 flight status page for this flight to view local times or setup timezone preferences in your user account.

Time Position Orientation Groundspeed Altitude Reporting Facility
EDT Latitude Longitude Course Direction KTS MPH feet Rate Location/Type
Fri 09:44:00 AM -22.1308 -47.9518 134° Southeast  Level Estimated
Fri 09:45:00 AM -22.1831 -47.8930 134° Southeast  Level Estimated
Fri 09:46:00 AM -22.2354 -47.8342 134° Southeast  Level Estimated
Fri 09:47:00 AM -22.2876 -47.7754 134° Southeast  Level Estimated
Fri 09:48:00 AM -22.3399 -47.7165 134° Southeast  Level Estimated
Fri 09:49:00 AM -22.3921 -47.6576 134° Southeast  Level Estimated
Fri 09:50:00 AM -22.4443 -47.5986 134° Southeast  Level Estimated
Fri 09:51:00 AM -22.4965 -47.5396 134° Southeast  Level Estimated
Fri 09:52:00 AM -22.5486 -47.4806 134° Southeast  Level Estimated
Fri 09:53:00 AM -22.6007 -47.4215 134° Southeast  Level Estimated
Fri 09:54:00 AM -22.6529 -47.3623 134° Southeast  Level Estimated
Fri 09:55:00 AM -22.7050 -47.3032 134° Southeast  Level Estimated
Fri 09:56:00 AM -22.7570 -47.2439 134° Southeast  Level Estimated
Fri 09:57:00 AM -22.8091 -47.1846 134° Southeast  Level Estimated
Fri 09:58:00 AM -22.8611 -47.1253 134° Southeast  Level Estimated
Fri 09:59:00 AM -22.9131 -47.0659 134° Southeast  Level Estimated
Fri 10:00:00 AM -22.9651 -47.0065 134° Southeast  Level Estimated
Fri 10:01:00 AM -23.0170 -46.9471 134° Southeast  Level Estimated
Fri 10:02:00 AM -23.0690 -46.8876 133° Southeast  Level Estimated
Fri 10:03:00 AM -23.1209 -46.8280 133° Southeast  Level Estimated
Fri 10:04:00 AM -23.1728 -46.7684 133° Southeast  Level Estimated
Fri 10:05:00 AM -23.2246 -46.7088 133° Southeast  Level Estimated
Fri 10:06:00 AM -23.2765 -46.6491 133° Southeast  Level Estimated
Fri 10:07:00 AM -23.3283 -46.5894 133° Southeast  Level Estimated
Fri 10:08:00 AM -23.3801 -46.5296 133° Southeast  Level Estimated
Fri 10:09:00 AM -23.4319 -46.4697 133° Southeast  Level Estimated
Fri 10:10:00 AM -23.4321 -46.4695 133° Southeast  Level Estimated
Fri 10:11:00 AM -23.4321 -46.4695 190° South  Level Estimated
Fri 10:12:00 AM -23.4321 -46.4695 350° North  Level Estimated
Fri 10:13:00 AM -23.4321 -46.4695 350° North  Level Estimated
Fri 10:14:00 AM -23.4321 -46.4695 350° North  Level Estimated
Fri 10:15:00 AM -23.4321 -46.4695 350° North  Level Estimated
Fri 10:16:00 AM -23.4321 -46.4695 350° North  Level Estimated
Fri 10:17:00 AM -23.4321 -46.4695 350° North  Level Estimated
Fri 10:18:00 AM -23.4321 -46.4695 350° North  Level Estimated
Fri 10:19:00 AM -23.4321 -46.4695 350° North  Level Estimated
Fri 10:20:00 AM -23.4321 -46.4695 350° North  Level Estimated
Fri 10:21:00 AM -23.4321 -46.4695 350° North  Level Estimated
Fri 10:22:00 AM -23.4321 -46.4695 350° North  Level Estimated
Fri 10:23:00 AM -23.4321 -46.4695 350° North  Level Estimated
Fri 10:24:00 AM -23.4321 -46.4695 350° North  Level Estimated
Fri 10:25:00 AM -23.4321 -46.4695 350° North  Level Estimated

Login

Don't have an account? Register now (free) for customized features, flight alerts, and more!